7XS8 weather

Lift Crane Heliport
Houston, Texas, United States

Public forecast

Using degrees Fahrenheit for public forecast. Weather courtesy of forecast.io.

METAR (pilot weather report)

Closest report is Houston Southwest Airport, 7.9 nm (14.7 km) S. Retrieved 2019/07/21 06:35 UTC (0 seconds ago):

KAXH 210635Z AUTO 00000KT 10SM CLR 25/25 A2995 RMK AO2 T02480245

TAF (pilot weather forecast)

Forecast is more than 12 hours old.

Closest forecast is William P Hobby Airport, 9.3 nm (17.3 km) E. Retrieved 2019/07/20 00:33 UTC (1 day ago):

TAF KHOU 202330Z 2100/2124 16012KT P6SM SCT045 BKN250 FM210100 16006KT P6SM FEW025 SCT250 FM211500 20006KT P6SM VCSH SCT025 BKN035 FM211700 18007KT P6SM VCTS SCT040CB PROB30 2117/2121 VRB10G27KT TSRA BKN035CB OVC060 FM212300 VRB06KT P6SM VCSH SCT040 BKN080 OVC250